sensor_id;sensor_type;location;lat;lon;timestamp;pressure;altitude;pressure_sealevel;temperature;humidity
43119;BME280;28729;49.838;8.650;2022-10-18T00:01:15;100633.94;;;18.41;100.00
43119;BME280;28729;49.838;8.650;2022-10-18T00:05:17;100624.13;;;18.44;100.00
43119;BME280;28729;49.838;8.650;2022-10-18T00:09:18;100622.22;;;18.44;100.00
43119;BME280;28729;49.838;8.650;2022-10-18T00:13:20;100617.19;;;18.41;100.00
43119;BME280;28729;49.838;8.650;2022-10-18T00:17:23;100619.69;;;18.43;100.00
43119;BME280;28729;49.838;8.650;2022-10-18T00:21:25;100617.19;;;18.41;100.00
43119;BME280;28729;49.838;8.650;2022-10-18T00:25:27;100627.50;;;18.41;100.00
43119;BME280;28729;49.838;8.650;2022-10-18T00:29:29;100617.47;;;18.40;100.00
43119;BME280;28729;49.838;8.650;2022-10-18T00:33:30;100623.88;;;18.40;100.00
43119;BME280;28729;49.838;8.650;2022-10-18T00:37:32;100630.59;;;18.29;100.00
43119;BME280;28729;49.838;8.650;2022-10-18T00:41:35;100635.34;;;18.24;100.00
43119;BME280;28729;49.838;8.650;2022-10-18T00:45:39;100628.38;;;18.21;100.00
43119;BME280;28729;49.838;8.650;2022-10-18T00:49:49;100632.00;;;18.21;100.00
43119;BME280;28729;49.838;8.650;2022-10-18T00:53:52;100621.41;;;18.18;100.00
43119;BME280;28729;49.838;8.650;2022-10-18T00:57:54;100622.53;;;18.17;100.00
43119;BME280;28729;49.838;8.650;2022-10-18T01:01:56;100612.78;;;18.15;100.00
43119;BME280;28729;49.838;8.650;2022-10-18T01:05:57;100607.47;;;18.13;100.00
43119;BME280;28729;49.838;8.650;2022-10-18T01:22:50;100591.84;;;18.12;100.00
43119;BME280;28729;49.838;8.650;2022-10-18T01:31:17;100581.25;;;18.09;100.00
43119;BME280;28729;49.838;8.650;2022-10-18T01:35:28;100587.66;;;18.10;100.00
43119;BME280;28729;49.838;8.650;2022-10-18T01:39:36;100580.44;;;18.09;100.00
43119;BME280;28729;49.838;8.650;2022-10-18T01:43:39;100565.91;;;18.07;100.00
43119;BME280;28729;49.838;8.650;2022-10-18T01:47:43;100558.13;;;17.98;100.00
43119;BME280;28729;49.838;8.650;2022-10-18T01:51:45;100548.38;;;17.91;100.00
43119;BME280;28729;49.838;8.650;2022-10-18T01:55:58;100550.03;;;17.82;100.00
43119;BME280;28729;49.838;8.650;2022-10-18T02:00:09;100552.81;;;17.71;100.00
43119;BME280;28729;49.838;8.650;2022-10-18T02:04:27;100553.38;;;17.58;100.00
43119;BME280;28729;49.838;8.650;2022-10-18T02:08:53;100539.72;;;17.41;100.00
43119;BME280;28729;49.838;8.650;2022-10-18T02:12:58;100542.19;;;17.27;100.00
43119;BME280;28729;49.838;8.650;2022-10-18T02:17:02;100545.53;;;17.14;100.00
43119;BME280;28729;49.838;8.650;2022-10-18T02:21:08;100548.00;;;17.00;100.00
43119;BME280;28729;49.838;8.650;2022-10-18T02:25:16;100552.41;;;16.86;100.00
43119;BME280;28729;49.838;8.650;2022-10-18T02:29:18;100553.22;;;16.76;100.00
43119;BME280;28729;49.838;8.650;2022-10-18T02:37:36;100545.97;;;16.75;100.00
43119;BME280;28729;49.838;8.650;2022-10-18T02:41:38;100549.34;;;16.82;100.00
43119;BME280;28729;49.838;8.650;2022-10-18T02:45:39;100553.81;;;16.89;100.00
43119;BME280;28729;49.838;8.650;2022-10-18T02:49:41;100574.16;;;16.94;100.00
43119;BME280;28729;49.838;8.650;2022-10-18T02:53:43;100583.09;;;16.96;100.00
43119;BME280;28729;49.838;8.650;2022-10-18T02:57:45;100583.34;;;16.95;100.00
43119;BME280;28729;49.838;8.650;2022-10-18T03:01:46;100580.31;;;16.96;100.00
43119;BME280;28729;49.838;8.650;2022-10-18T03:05:49;100582.25;;;17.01;100.00
43119;BME280;28729;49.838;8.650;2022-10-18T03:09:51;100579.47;;;17.06;100.00
43119;BME280;28729;49.838;8.650;2022-10-18T03:13:52;100581.47;;;17.11;100.00
43119;BME280;28729;49.838;8.650;2022-10-18T03:17:54;100591.75;;;17.15;100.00
43119;BME280;28729;49.838;8.650;2022-10-18T03:21:55;100615.16;;;17.14;100.00
43119;BME280;28729;49.838;8.650;2022-10-18T03:25:57;100643.81;;;17.04;100.00
43119;BME280;28729;49.838;8.650;2022-10-18T03:29:59;100628.50;;;17.02;100.00
43119;BME280;28729;49.838;8.650;2022-10-18T03:34:01;100644.66;;;17.05;100.00
43119;BME280;28729;49.838;8.650;2022-10-18T03:38:03;100640.72;;;17.01;100.00
43119;BME280;28729;49.838;8.650;2022-10-18T03:42:04;100637.66;;;17.02;100.00
43119;BME280;28729;49.838;8.650;2022-10-18T03:46:06;100630.16;;;17.03;100.00
43119;BME280;28729;49.838;8.650;2022-10-18T03:50:08;100635.16;;;17.06;100.00
43119;BME280;28729;49.838;8.650;2022-10-18T03:54:10;100630.44;;;17.06;100.00
43119;BME280;28729;49.838;8.650;2022-10-18T03:58:11;100620.16;;;17.12;100.00
43119;BME280;28729;49.838;8.650;2022-10-18T04:02:13;100615.69;;;17.16;100.00
43119;BME280;28729;49.838;8.650;2022-10-18T04:06:15;100618.22;;;17.18;100.00
43119;BME280;28729;49.838;8.650;2022-10-18T04:10:16;100619.88;;;17.19;100.00
43119;BME280;28729;49.838;8.650;2022-10-18T04:14:19;100618.78;;;17.20;100.00
43119;BME280;28729;49.838;8.650;2022-10-18T04:18:21;100629.94;;;17.25;100.00
43119;BME280;28729;49.838;8.650;2022-10-18T04:22:23;100626.31;;;17.24;100.00
43119;BME280;28729;49.838;8.650;2022-10-18T04:26:25;100651.38;;;17.24;100.00
43119;BME280;28729;49.838;8.650;2022-10-18T04:30:26;100665.00;;;17.16;100.00
43119;BME280;28729;49.838;8.650;2022-10-18T04:34:28;100637.69;;;17.13;100.00
43119;BME280;28729;49.838;8.650;2022-10-18T04:38:30;100652.44;;;17.13;100.00
43119;BME280;28729;49.838;8.650;2022-10-18T04:42:31;100646.34;;;17.16;100.00
43119;BME280;28729;49.838;8.650;2022-10-18T04:46:33;100638.28;;;17.20;100.00
43119;BME280;28729;49.838;8.650;2022-10-18T04:50:35;100641.38;;;17.23;100.00
43119;BME280;28729;49.838;8.650;2022-10-18T04:54:47;100626.31;;;17.24;100.00
43119;BME280;28729;49.838;8.650;2022-10-18T04:58:49;100638.28;;;17.25;100.00
43119;BME280;28729;49.838;8.650;2022-10-18T05:02:55;100645.28;;;17.22;100.00
43119;BME280;28729;49.838;8.650;2022-10-18T05:06:57;100642.47;;;17.22;100.00
43119;BME280;28729;49.838;8.650;2022-10-18T05:10:59;100641.94;;;17.25;100.00
43119;BME280;28729;49.838;8.650;2022-10-18T05:15:01;100642.75;;;17.26;100.00
43119;BME280;28729;49.838;8.650;2022-10-18T05:19:03;100628.00;;;17.25;100.00
43119;BME280;28729;49.838;8.650;2022-10-18T05:23:06;100628.84;;;17.26;100.00
43119;BME280;28729;49.838;8.650;2022-10-18T05:27:11;100628.25;;;17.24;100.00
43119;BME280;28729;49.838;8.650;2022-10-18T05:31:12;100622.97;;;17.22;100.00
43119;BME280;28729;49.838;8.650;2022-10-18T05:35:14;100624.06;;;17.21;100.00
43119;BME280;28729;49.838;8.650;2022-10-18T05:39:16;100626.88;;;17.21;100.00
43119;BME280;28729;49.838;8.650;2022-10-18T05:43:17;100620.75;;;17.19;100.00
43119;BME280;28729;49.838;8.650;2022-10-18T05:47:19;100613.50;;;17.18;100.00
43119;BME280;28729;49.838;8.650;2022-10-18T05:51:22;100603.47;;;17.17;100.00
43119;BME280;28729;49.838;8.650;2022-10-18T05:55:24;100606.22;;;17.12;100.00
43119;BME280;28729;49.838;8.650;2022-10-18T05:59:25;100613.47;;;17.08;100.00
43119;BME280;28729;49.838;8.650;2022-10-18T06:03:27;100612.91;;;17.06;100.00
43119;BME280;28729;49.838;8.650;2022-10-18T06:07:31;100600.38;;;17.08;100.00
43119;BME280;28729;49.838;8.650;2022-10-18T06:11:34;100616.00;;;17.15;100.00
43119;BME280;28729;49.838;8.650;2022-10-18T06:15:36;100619.03;;;17.13;100.00
43119;BME280;28729;49.838;8.650;2022-10-18T06:19:38;100627.97;;;17.15;100.00
43119;BME280;28729;49.838;8.650;2022-10-18T06:23:39;100640.25;;;17.19;100.00
43119;BME280;28729;49.838;8.650;2022-10-18T06:27:41;100646.66;;;17.20;100.00
43119;BME280;28729;49.838;8.650;2022-10-18T06:31:42;100650.84;;;17.22;100.00
43119;BME280;28729;49.838;8.650;2022-10-18T06:35:56;100653.63;;;17.27;100.00
43119;BME280;28729;49.838;8.650;2022-10-18T06:39:58;100643.63;;;17.31;100.00
43119;BME280;28729;49.838;8.650;2022-10-18T06:43:59;100643.06;;;17.35;100.00
43119;BME280;28729;49.838;8.650;2022-10-18T06:48:07;100651.16;;;17.41;100.00
43119;BME280;28729;49.838;8.650;2022-10-18T06:52:09;100665.66;;;17.48;100.00
43119;BME280;28729;49.838;8.650;2022-10-18T06:56:11;100671.50;;;17.47;100.00
43119;BME280;28729;49.838;8.650;2022-10-18T07:00:14;100678.72;;;17.43;100.00
43119;BME280;28729;49.838;8.650;2022-10-18T07:04:15;100674.88;;;17.54;100.00
43119;BME280;28729;49.838;8.650;2022-10-18T07:08:17;100676.31;;;17.67;100.00
43119;BME280;28729;49.838;8.650;2022-10-18T07:12:19;100692.19;;;17.76;100.00
43119;BME280;28729;49.838;8.650;2022-10-18T07:16:20;100686.94;;;17.80;100.00
43119;BME280;28729;49.838;8.650;2022-10-18T07:20:22;100695.59;;;17.89;100.00
43119;BME280;28729;49.838;8.650;2022-10-18T07:24:24;100693.91;;;17.93;100.00
43119;BME280;28729;49.838;8.650;2022-10-18T07:28:26;100704.53;;;18.01;100.00
43119;BME280;28729;49.838;8.650;2022-10-18T07:32:28;100708.72;;;18.09;100.00
43119;BME280;28729;49.838;8.650;2022-10-18T07:36:29;100709.00;;;18.22;100.00
43119;BME280;28729;49.838;8.650;2022-10-18T07:40:31;100718.47;;;18.37;100.00
43119;BME280;28729;49.838;8.650;2022-10-18T07:44:32;100712.34;;;18.45;100.00
43119;BME280;28729;49.838;8.650;2022-10-18T07:48:34;100719.28;;;18.58;100.00
43119;BME280;28729;49.838;8.650;2022-10-18T07:52:36;100715.63;;;18.73;100.00
43119;BME280;28729;49.838;8.650;2022-10-18T07:56:37;100712.56;;;18.89;100.00
43119;BME280;28729;49.838;8.650;2022-10-18T08:00:39;100711.69;;;19.04;100.00
43119;BME280;28729;49.838;8.650;2022-10-18T08:04:40;100728.41;;;19.15;100.00
43119;BME280;28729;49.838;8.650;2022-10-18T08:08:43;100711.88;;;19.23;100.00
43119;BME280;28729;49.838;8.650;2022-10-18T08:12:44;100717.22;;;19.15;100.00
43119;BME280;28729;49.838;8.650;2022-10-18T08:16:46;100724.81;;;19.04;100.00
43119;BME280;28729;49.838;8.650;2022-10-18T08:20:48;100722.28;;;19.02;100.00
43119;BME280;28729;49.838;8.650;2022-10-18T08:24:49;100725.63;;;19.09;100.00
43119;BME280;28729;49.838;8.650;2022-10-18T08:28:51;100722.81;;;19.20;100.00
43119;BME280;28729;49.838;8.650;2022-10-18T08:33:13;100719.09;;;19.40;100.00
43119;BME280;28729;49.838;8.650;2022-10-18T08:37:15;100724.25;;;19.72;100.00
43119;BME280;28729;49.838;8.650;2022-10-18T08:45:19;100729.91;;;20.40;100.00
43119;BME280;28729;49.838;8.650;2022-10-18T08:49:48;100725.88;;;20.86;100.00
43119;BME280;28729;49.838;8.650;2022-10-18T08:53:58;100732.06;;;21.07;100.00
43119;BME280;28729;49.838;8.650;2022-10-18T08:58:16;100738.03;;;21.00;100.00
43119;BME280;28729;49.838;8.650;2022-10-18T09:02:35;100740.94;;;20.90;100.00
43119;BME280;28729;49.838;8.650;2022-10-18T09:15:15;100757.81;;;20.56;100.00
43119;BME280;28729;49.838;8.650;2022-10-18T09:23:49;100759.16;;;20.58;100.00
43119;BME280;28729;49.838;8.650;2022-10-18T09:32:30;100768.63;;;20.67;100.00
43119;BME280;28729;49.838;8.650;2022-10-18T09:36:36;100768.34;;;20.64;100.00
43119;BME280;28729;49.838;8.650;2022-10-18T09:41:00;100775.25;;;20.42;100.00
43119;BME280;28729;49.838;8.650;2022-10-18T09:49:48;100764.13;;;20.32;100.00
43119;BME280;28729;49.838;8.650;2022-10-18T09:54:04;100762.97;;;20.38;100.00
43119;BME280;28729;49.838;8.650;2022-10-18T09:58:10;100765.50;;;20.69;100.00
43119;BME280;28729;49.838;8.650;2022-10-18T10:02:21;100764.59;;;21.03;100.00
43119;BME280;28729;49.838;8.650;2022-10-18T10:06:31;100770.13;;;21.13;100.00
43119;BME280;28729;49.838;8.650;2022-10-18T10:10:38;100770.75;;;21.05;100.00
43119;BME280;28729;49.838;8.650;2022-10-18T10:14:43;100774.06;;;20.83;100.00
43119;BME280;28729;49.838;8.650;2022-10-18T10:18:51;100774.63;;;20.56;100.00
43119;BME280;28729;49.838;8.650;2022-10-18T10:23:04;100781.50;;;20.68;100.00
43119;BME280;28729;49.838;8.650;2022-10-18T10:27:15;100778.75;;;20.92;100.00
43119;BME280;28729;49.838;8.650;2022-10-18T10:35:30;100780.91;;;21.25;100.00
43119;BME280;28729;49.838;8.650;2022-10-18T10:40:09;100787.31;;;21.30;100.00
43119;BME280;28729;49.838;8.650;2022-10-18T10:44:24;100788.13;;;21.36;100.00
43119;BME280;28729;49.838;8.650;2022-10-18T10:48:27;100778.19;;;21.44;100.00
43119;BME280;28729;49.838;8.650;2022-10-18T10:52:36;100776.94;;;21.55;100.00
43119;BME280;28729;49.838;8.650;2022-10-18T11:01:30;100798.72;;;21.63;100.00
43119;BME280;28729;49.838;8.650;2022-10-18T11:05:41;100791.81;;;21.74;100.00
43119;BME280;28729;49.838;8.650;2022-10-18T11:13:58;100800.56;;;21.92;100.00
43119;BME280;28729;49.838;8.650;2022-10-18T11:18:24;100800.16;;;21.79;100.00
43119;BME280;28729;49.838;8.650;2022-10-18T11:22:33;100803.72;;;21.66;100.00
43119;BME280;28729;49.838;8.650;2022-10-18T11:26:57;100799.50;;;21.45;100.00
43119;BME280;28729;49.838;8.650;2022-10-18T11:31:26;100797.84;;;21.14;100.00
43119;BME280;28729;49.838;8.650;2022-10-18T11:35:39;100802.72;;;21.04;100.00
43119;BME280;28729;49.838;8.650;2022-10-18T11:43:59;100796.34;;;20.64;100.00
43119;BME280;28729;49.838;8.650;2022-10-18T11:52:43;100791.31;;;20.66;100.00
43119;BME280;28729;49.838;8.650;2022-10-18T12:01:42;100786.03;;;20.64;100.00
43119;BME280;28729;49.838;8.650;2022-10-18T12:05:49;100788.06;;;20.48;100.00
43119;BME280;28729;49.838;8.650;2022-10-18T12:09:52;100789.81;;;20.39;100.00
43119;BME280;28729;49.838;8.650;2022-10-18T12:13:58;100788.09;;;20.83;100.00
43119;BME280;28729;49.838;8.650;2022-10-18T12:18:05;100773.72;;;21.43;100.00
43119;BME280;28729;49.838;8.650;2022-10-18T12:22:39;100782.06;;;21.72;100.00
43119;BME280;28729;49.838;8.650;2022-10-18T12:26:44;100778.09;;;21.73;100.00
43119;BME280;28729;49.838;8.650;2022-10-18T12:30:58;100776.06;;;21.78;100.00
43119;BME280;28729;49.838;8.650;2022-10-18T12:35:10;100777.44;;;22.00;100.00
43119;BME280;28729;49.838;8.650;2022-10-18T12:39:22;100776.78;;;22.08;100.00
43119;BME280;28729;49.838;8.650;2022-10-18T12:43:53;100770.13;;;22.23;100.00
43119;BME280;28729;49.838;8.650;2022-10-18T12:48:04;100769.72;;;22.29;100.00
43119;BME280;28729;49.838;8.650;2022-10-18T12:52:20;100762.91;;;22.17;100.00
43119;BME280;28729;49.838;8.650;2022-10-18T13:04:33;100751.13;;;22.15;100.00
43119;BME280;28729;49.838;8.650;2022-10-18T13:08:40;100748.72;;;22.27;100.00
43119;BME280;28729;49.838;8.650;2022-10-18T13:16:48;100750.13;;;22.76;98.30
43119;BME280;28729;49.838;8.650;2022-10-18T13:38:30;100756.16;;;22.83;92.14
43119;BME280;28729;49.838;8.650;2022-10-18T13:42:33;100745.63;;;22.42;93.72
43119;BME280;28729;49.838;8.650;2022-10-18T13:50:40;100750.38;;;21.90;96.50
43119;BME280;28729;49.838;8.650;2022-10-18T14:00:05;100757.09;;;21.70;98.73
43119;BME280;28729;49.838;8.650;2022-10-18T14:04:33;100755.94;;;21.71;98.79
43119;BME280;28729;49.838;8.650;2022-10-18T14:13:19;100759.66;;;21.48;100.00
43119;BME280;28729;49.838;8.650;2022-10-18T14:21:50;100767.00;;;21.14;100.00
43119;BME280;28729;49.838;8.650;2022-10-18T14:26:13;100768.72;;;20.86;100.00
43119;BME280;28729;49.838;8.650;2022-10-18T14:30:18;100767.25;;;20.65;100.00
43119;BME280;28729;49.838;8.650;2022-10-18T14:34:20;100769.59;;;20.53;100.00
43119;BME280;28729;49.838;8.650;2022-10-18T14:38:22;100770.78;;;20.41;100.00
43119;BME280;28729;49.838;8.650;2022-10-18T14:42:26;100775.84;;;20.34;100.00
43119;BME280;28729;49.838;8.650;2022-10-18T14:46:29;100776.44;;;20.31;100.00
43119;BME280;28729;49.838;8.650;2022-10-18T14:50:32;100783.47;;;20.29;100.00
43119;BME280;28729;49.838;8.650;2022-10-18T14:54:37;100784.31;;;20.29;100.00
43119;BME280;28729;49.838;8.650;2022-10-18T14:58:40;100786.56;;;20.27;100.00
43119;BME280;28729;49.838;8.650;2022-10-18T15:02:42;100789.09;;;20.23;100.00
43119;BME280;28729;49.838;8.650;2022-10-18T15:06:44;100789.13;;;20.18;100.00
43119;BME280;28729;49.838;8.650;2022-10-18T15:10:46;100782.97;;;20.16;100.00
43119;BME280;28729;49.838;8.650;2022-10-18T15:14:48;100784.69;;;20.12;100.00
43119;BME280;28729;49.838;8.650;2022-10-18T15:23:24;100787.25;;;20.09;100.00
43119;BME280;28729;49.838;8.650;2022-10-18T15:27:31;100782.22;;;20.06;100.00
43119;BME280;28729;49.838;8.650;2022-10-18T15:31:38;100788.97;;;19.99;100.00
43119;BME280;28729;49.838;8.650;2022-10-18T15:35:43;100791.25;;;19.92;100.00
43119;BME280;28729;49.838;8.650;2022-10-18T15:39:45;100787.63;;;19.87;100.00
43119;BME280;28729;49.838;8.650;2022-10-18T15:43:46;100792.44;;;19.81;100.00
43119;BME280;28729;49.838;8.650;2022-10-18T15:56:05;100804.81;;;19.70;100.00
43119;BME280;28729;49.838;8.650;2022-10-18T16:00:17;100798.63;;;19.63;100.00
43119;BME280;28729;49.838;8.650;2022-10-18T16:04:24;100799.25;;;19.54;100.00
43119;BME280;28729;49.838;8.650;2022-10-18T16:08:28;100795.34;;;19.45;100.00
43119;BME280;28729;49.838;8.650;2022-10-18T16:12:37;100790.94;;;19.34;100.00
43119;BME280;28729;49.838;8.650;2022-10-18T16:16:40;100794.31;;;19.21;100.00
43119;BME280;28729;49.838;8.650;2022-10-18T16:20:42;100788.50;;;19.07;100.00
43119;BME280;28729;49.838;8.650;2022-10-18T16:24:44;100793.53;;;18.95;100.00
43119;BME280;28729;49.838;8.650;2022-10-18T16:28:46;100792.72;;;18.84;100.00
43119;BME280;28729;49.838;8.650;2022-10-18T16:32:51;100799.69;;;18.71;100.00
43119;BME280;28729;49.838;8.650;2022-10-18T16:36:54;100800.22;;;18.58;100.00
43119;BME280;28729;49.838;8.650;2022-10-18T16:40:56;100811.69;;;18.46;100.00
43119;BME280;28729;49.838;8.650;2022-10-18T16:44:58;100817.56;;;18.44;100.00
43119;BME280;28729;49.838;8.650;2022-10-18T16:49:00;100808.34;;;18.39;100.00
43119;BME280;28729;49.838;8.650;2022-10-18T16:53:02;100816.13;;;18.32;100.00
43119;BME280;28729;49.838;8.650;2022-10-18T16:57:03;100819.19;;;18.25;100.00
43119;BME280;28729;49.838;8.650;2022-10-18T17:01:05;100829.47;;;18.14;100.00
43119;BME280;28729;49.838;8.650;2022-10-18T17:05:09;100832.81;;;18.06;100.00
43119;BME280;28729;49.838;8.650;2022-10-18T17:09:12;100839.50;;;18.00;100.00
43119;BME280;28729;49.838;8.650;2022-10-18T17:13:15;100833.63;;;17.96;100.00
43119;BME280;28729;49.838;8.650;2022-10-18T17:17:17;100843.66;;;17.92;100.00
43119;BME280;28729;49.838;8.650;2022-10-18T17:21:18;100841.38;;;17.84;100.00
43119;BME280;28729;49.838;8.650;2022-10-18T17:25:20;100834.69;;;17.80;100.00
43119;BME280;28729;49.838;8.650;2022-10-18T17:29:22;100851.09;;;17.76;100.00
43119;BME280;28729;49.838;8.650;2022-10-18T17:33:23;100848.56;;;17.75;100.00
43119;BME280;28729;49.838;8.650;2022-10-18T17:37:25;100851.09;;;17.76;100.00
43119;BME280;28729;49.838;8.650;2022-10-18T17:41:27;100851.69;;;17.79;100.00
43119;BME280;28729;49.838;8.650;2022-10-18T17:45:29;100852.78;;;17.77;100.00
43119;BME280;28729;49.838;8.650;2022-10-18T17:49:30;100852.78;;;17.77;100.00
43119;BME280;28729;49.838;8.650;2022-10-18T17:53:32;100852.78;;;17.77;100.00
43119;BME280;28729;49.838;8.650;2022-10-18T17:57:35;100858.63;;;17.76;100.00
43119;BME280;28729;49.838;8.650;2022-10-18T18:01:37;100864.19;;;17.76;100.00
43119;BME280;28729;49.838;8.650;2022-10-18T18:05:39;100857.50;;;17.77;100.00
43119;BME280;28729;49.838;8.650;2022-10-18T18:09:41;100863.94;;;17.77;100.00
43119;BME280;28729;49.838;8.650;2022-10-18T18:13:43;100860.91;;;17.79;100.00
43119;BME280;28729;49.838;8.650;2022-10-18T18:17:44;100856.41;;;17.78;100.00
43119;BME280;28729;49.838;8.650;2022-10-18T18:21:57;100851.91;;;17.72;100.00
43119;BME280;28729;49.838;8.650;2022-10-18T18:25:59;100845.72;;;17.60;100.00
43119;BME280;28729;49.838;8.650;2022-10-18T18:30:01;100849.00;;;17.46;100.00
43119;BME280;28729;49.838;8.650;2022-10-18T18:34:08;100851.44;;;17.33;100.00
43119;BME280;28729;49.838;8.650;2022-10-18T18:38:10;100858.66;;;17.28;100.00
43119;BME280;28729;49.838;8.650;2022-10-18T18:42:12;100855.34;;;17.31;100.00
43119;BME280;28729;49.838;8.650;2022-10-18T18:46:14;100856.16;;;17.32;100.00
43119;BME280;28729;49.838;8.650;2022-10-18T18:50:16;100858.91;;;17.27;100.00
43119;BME280;28729;49.838;8.650;2022-10-18T18:54:17;100863.56;;;17.16;100.00
43119;BME280;28729;49.838;8.650;2022-10-18T18:58:21;100859.88;;;17.05;100.00
43119;BME280;28729;49.838;8.650;2022-10-18T19:02:22;100854.75;;;16.92;100.00
43119;BME280;28729;49.838;8.650;2022-10-18T19:06:28;100857.19;;;16.78;100.00
43119;BME280;28729;49.838;8.650;2022-10-18T19:10:30;100853.72;;;16.66;100.00
43119;BME280;28729;49.838;8.650;2022-10-18T19:14:32;100860.28;;;16.55;100.00
43119;BME280;28729;49.838;8.650;2022-10-18T19:18:34;100858.25;;;16.45;100.00
43119;BME280;28729;49.838;8.650;2022-10-18T19:22:36;100855.63;;;16.33;100.00
43119;BME280;28729;49.838;8.650;2022-10-18T19:26:47;100857.19;;;16.24;100.00
43119;BME280;28729;49.838;8.650;2022-10-18T19:30:49;100854.03;;;16.15;100.00
43119;BME280;28729;49.838;8.650;2022-10-18T19:34:51;100858.97;;;16.08;100.00
43119;BME280;28729;49.838;8.650;2022-10-18T19:38:53;100860.84;;;16.03;100.00
43119;BME280;28729;49.838;8.650;2022-10-18T19:42:55;100867.44;;;15.97;100.00
43119;BME280;28729;49.838;8.650;2022-10-18T19:46:58;100875.16;;;15.89;100.00
43119;BME280;28729;49.838;8.650;2022-10-18T19:51:05;100879.81;;;15.84;100.00
43119;BME280;28729;49.838;8.650;2022-10-18T19:55:10;100879.47;;;15.80;100.00
43119;BME280;28729;49.838;8.650;2022-10-18T19:59:13;100876.19;;;15.83;100.00
43119;BME280;28729;49.838;8.650;2022-10-18T20:03:15;100875.59;;;15.81;100.00
43119;BME280;28729;49.838;8.650;2022-10-18T20:07:16;100869.72;;;15.78;100.00
43119;BME280;28729;49.838;8.650;2022-10-18T20:11:21;100859.88;;;15.70;100.00
43119;BME280;28729;49.838;8.650;2022-10-18T20:15:23;100868.97;;;15.65;100.00
43119;BME280;28729;49.838;8.650;2022-10-18T20:19:24;100863.34;;;15.60;100.00
43119;BME280;28729;49.838;8.650;2022-10-18T20:23:26;100866.91;;;15.56;100.00
43119;BME280;28729;49.838;8.650;2022-10-18T20:27:29;100851.59;;;15.53;100.00
43119;BME280;28729;49.838;8.650;2022-10-18T20:31:33;100854.03;;;15.49;100.00
43119;BME280;28729;49.838;8.650;2022-10-18T20:35:37;100862.88;;;15.46;100.00
43119;BME280;28729;49.838;8.650;2022-10-18T20:39:39;100865.59;;;15.41;100.00
43119;BME280;28729;49.838;8.650;2022-10-18T20:43:41;100872.75;;;15.37;100.00
43119;BME280;28729;49.838;8.650;2022-10-18T20:47:43;100866.63;;;15.35;100.00
43119;BME280;28729;49.838;8.650;2022-10-18T20:51:45;100866.63;;;15.35;100.00
43119;BME280;28729;49.838;8.650;2022-10-18T20:55:47;100864.94;;;15.34;100.00
43119;BME280;28729;49.838;8.650;2022-10-18T20:59:49;100859.88;;;15.31;100.00
43119;BME280;28729;49.838;8.650;2022-10-18T21:03:53;100858.72;;;15.27;100.00
43119;BME280;28729;49.838;8.650;2022-10-18T21:07:55;100848.13;;;15.24;100.00
43119;BME280;28729;49.838;8.650;2022-10-18T21:11:57;100853.94;;;15.22;100.00
43119;BME280;28729;49.838;8.650;2022-10-18T21:16:00;100849.72;;;15.20;100.00
43119;BME280;28729;49.838;8.650;2022-10-18T21:20:02;100855.28;;;15.20;100.00
43119;BME280;28729;49.838;8.650;2022-10-18T21:24:04;100850.59;;;15.20;100.00
43119;BME280;28729;49.838;8.650;2022-10-18T21:28:08;100850.81;;;15.19;100.00
43119;BME280;28729;49.838;8.650;2022-10-18T21:32:10;100840.00;;;15.17;100.00
43119;BME280;28729;49.838;8.650;2022-10-18T21:36:12;100839.41;;;15.15;100.00
43119;BME280;28729;49.838;8.650;2022-10-18T21:40:14;100843.28;;;15.14;100.00
43119;BME280;28729;49.838;8.650;2022-10-18T21:44:16;100837.22;;;15.17;100.00
43119;BME280;28729;49.838;8.650;2022-10-18T21:48:18;100833.94;;;15.20;100.00
43119;BME280;28729;49.838;8.650;2022-10-18T21:52:20;100832.06;;;15.26;100.00
43119;BME280;28729;49.838;8.650;2022-10-18T21:56:33;100822.72;;;15.32;100.00
43119;BME280;28729;49.838;8.650;2022-10-18T22:00:35;100823.78;;;15.31;100.00
43119;BME280;28729;49.838;8.650;2022-10-18T22:04:39;100834.56;;;15.27;100.00
43119;BME280;28729;49.838;8.650;2022-10-18T22:08:51;100825.31;;;15.22;100.00
43119;BME280;28729;49.838;8.650;2022-10-18T22:12:53;100823.06;;;15.19;100.00
43119;BME280;28729;49.838;8.650;2022-10-18T22:16:55;100822.97;;;15.14;100.00
43119;BME280;28729;49.838;8.650;2022-10-18T22:20:59;100813.50;;;15.10;100.00
43119;BME280;28729;49.838;8.650;2022-10-18T22:25:02;100812.56;;;15.04;100.00
43119;BME280;28729;49.838;8.650;2022-10-18T22:29:11;100813.91;;;15.01;100.00
43119;BME280;28729;49.838;8.650;2022-10-18T22:33:15;100819.16;;;14.98;100.00
43119;BME280;28729;49.838;8.650;2022-10-18T22:37:16;100805.28;;;14.98;100.00
43119;BME280;28729;49.838;8.650;2022-10-18T22:41:18;100811.66;;;14.98;100.00
43119;BME280;28729;49.838;8.650;2022-10-18T22:45:20;100800.00;;;14.96;100.00
43119;BME280;28729;49.838;8.650;2022-10-18T22:49:21;100801.00;;;14.90;100.00
43119;BME280;28729;49.838;8.650;2022-10-18T22:53:25;100807.56;;;14.84;100.00
43119;BME280;28729;49.838;8.650;2022-10-18T22:57:28;100811.34;;;14.78;100.00
43119;BME280;28729;49.838;8.650;2022-10-18T23:01:29;100808.75;;;14.71;100.00
43119;BME280;28729;49.838;8.650;2022-10-18T23:05:38;100812.81;;;14.64;100.00
43119;BME280;28729;49.838;8.650;2022-10-18T23:09:40;100814.03;;;14.56;100.00
43119;BME280;28729;49.838;8.650;2022-10-18T23:13:42;100823.59;;;14.48;100.00
43119;BME280;28729;49.838;8.650;2022-10-18T23:17:44;100821.56;;;14.44;100.00